Time;durP1;ratioP1;P1;durP2;ratioP2;P2;SDS_P1;SDS_P2;PMS_P1;PMS_P2;Temp;Humidity;BMP_temperature;BMP_pressure;BME280_temperature;BME280_humidity;BME280_pressure;Samples;Min_cycle;Max_cycle;Signal;HPM_P1;HPM_P2
2022/04/10 00:01:38;;;;;;;10.20;2.10;;;;;;;;;;5127853;27;20039;-86
2022/04/10 00:04:05;;;;;;;13.43;2.10;;;;;;;;;;5092145;27;20052;-85
2022/04/10 00:06:31;;;;;;;14.65;2.72;;;;;;;;;;5107895;27;20258;-91
2022/04/10 00:09:00;;;;;;;14.73;2.55;;;;;;;;;;5105806;27;20054;-85
2022/04/10 00:11:27;;;;;;;20.50;3.08;;;;;;;;;;5126189;27;20067;-86
2022/04/10 00:13:53;;;;;;;19.88;2.80;;;;;;;;;;5123051;27;20043;-86
2022/04/10 00:16:19;;;;;;;22.65;3.75;;;;;;;;;;5128547;27;20049;-86
2022/04/10 00:18:45;;;;;;;19.15;2.88;;;;;;;;;;5145923;27;20042;-85
2022/04/10 00:21:11;;;;;;;22.73;3.20;;;;;;;;;;5142660;27;20094;-85
2022/04/10 00:23:37;;;;;;;14.50;2.38;;;;;;;;;;5090788;27;20067;-87
2022/04/10 00:26:03;;;;;;;17.77;3.33;;;;;;;;;;5124022;27;20070;-88
2022/04/10 00:28:39;;;;;;;22.13;3.67;;;;;;;;;;5123730;27;20027;-87
2022/04/10 00:31:05;;;;;;;20.65;3.42;;;;;;;;;;5135039;27;20043;-88
2022/04/10 00:33:31;;;;;;;20.15;3.13;;;;;;;;;;5136110;27;20046;-87
2022/04/10 00:35:57;;;;;;;18.17;2.83;;;;;;;;;;5148418;27;20064;-88
2022/04/10 00:38:23;;;;;;;24.58;3.60;;;;;;;;;;5148892;27;20100;-89
2022/04/10 00:40:50;;;;;;;28.98;3.85;;;;;;;;;;5116479;27;20035;-86
2022/04/10 00:43:16;;;;;;;24.73;3.15;;;;;;;;;;5128975;27;20035;-87
2022/04/10 00:45:42;;;;;;;22.80;3.53;;;;;;;;;;5126355;27;20069;-86
2022/04/10 00:48:09;;;;;;;20.95;3.30;;;;;;;;;;5108954;27;20074;-87
2022/04/10 00:50:35;;;;;;;16.75;2.60;;;;;;;;;;5105681;27;20500;-86
2022/04/10 00:53:01;;;;;;;20.80;3.88;;;;;;;;;;5117339;27;20130;-86
2022/04/10 00:55:28;;;;;;;19.15;2.97;;;;;;;;;;5123776;27;20086;-88
2022/04/10 00:57:54;;;;;;;15.50;3.03;;;;;;;;;;5122076;27;20513;-89
2022/04/10 01:00:20;;;;;;;27.05;3.15;;;;;;;;;;5107913;27;20051;-89
2022/04/10 01:02:46;;;;;;;23.10;4.70;;;;;;;;;;5104032;27;20062;-88
2022/04/10 01:05:12;;;;;;;18.25;3.05;;;;;;;;;;5123689;27;20075;-85
2022/04/10 01:07:38;;;;;;;20.08;3.40;;;;;;;;;;5124316;27;20049;-86
2022/04/10 01:10:05;;;;;;;24.65;3.88;;;;;;;;;;5127787;27;20092;-87
2022/04/10 01:12:40;;;;;;;19.63;3.47;;;;;;;;;;5126315;27;20087;-87
2022/04/10 01:15:07;;;;;;;13.77;2.42;;;;;;;;;;5123441;27;20054;-86
2022/04/10 01:17:33;;;;;;;22.23;3.33;;;;;;;;;;5122937;27;20495;-87
2022/04/10 01:20:00;;;;;;;16.00;3.47;;;;;;;;;;5083706;27;20497;-86
2022/04/10 01:22:29;;;;;;;15.98;3.03;;;;;;;;;;5125963;27;20502;-87
2022/04/10 01:24:56;;;;;;;22.70;3.17;;;;;;;;;;5120195;27;20028;-86
2022/04/10 01:27:22;;;;;;;16.50;2.70;;;;;;;;;;5123844;27;20402;-86
2022/04/10 01:29:48;;;;;;;20.38;4.18;;;;;;;;;;5110039;27;20042;-86
2022/04/10 01:32:14;;;;;;;19.70;4.28;;;;;;;;;;5124872;27;20533;-86
2022/04/10 01:34:41;;;;;;;16.90;3.13;;;;;;;;;;5123704;27;20035;-86
2022/04/10 01:37:08;;;;;;;24.27;3.15;;;;;;;;;;5119476;27;20043;-86
2022/04/10 01:39:35;;;;;;;17.05;3.10;;;;;;;;;;5124835;27;20047;-86
2022/04/10 01:42:04;;;;;;;30.20;3.42;;;;;;;;;;5104810;27;20479;-85
2022/04/10 01:44:30;;;;;;;16.70;2.97;;;;;;;;;;5121715;27;20521;-87
2022/04/10 01:46:56;;;;;;;29.42;3.55;;;;;;;;;;5121672;27;20038;-86
2022/04/10 01:49:22;;;;;;;16.35;2.95;;;;;;;;;;5123555;27;20893;-86
2022/04/10 01:51:48;;;;;;;20.92;2.85;;;;;;;;;;5101648;27;20031;-85
2022/04/10 01:54:14;;;;;;;18.20;3.53;;;;;;;;;;5128893;27;20382;-86
2022/04/10 01:56:42;;;;;;;16.45;3.42;;;;;;;;;;5122740;27;20394;-87
2022/04/10 01:59:08;;;;;;;12.15;2.58;;;;;;;;;;5102168;27;21430;-86
2022/04/10 02:01:34;;;;;;;20.13;2.85;;;;;;;;;;5126383;27;20482;-86
2022/04/10 02:04:00;;;;;;;18.80;3.67;;;;;;;;;;5118503;27;20510;-86
2022/04/10 02:06:26;;;;;;;15.60;3.00;;;;;;;;;;5125531;27;20547;-89
2022/04/10 02:08:52;;;;;;;20.92;2.60;;;;;;;;;;5124480;27;20027;-93
2022/04/10 02:11:20;;;;;;;27.60;3.83;;;;;;;;;;5091345;27;20063;-87
2022/04/10 02:13:47;;;;;;;17.10;2.63;;;;;;;;;;5119522;27;20153;-85
2022/04/10 02:16:14;;;;;;;17.92;3.45;;;;;;;;;;5116791;27;20054;-87
2022/04/10 02:18:40;;;;;;;19.17;3.45;;;;;;;;;;5105126;27;20035;-87
2022/04/10 02:21:06;;;;;;;21.17;4.43;;;;;;;;;;5102707;27;20096;-86
2022/04/10 02:23:32;;;;;;;24.40;5.15;;;;;;;;;;5102966;28;20038;-87
2022/04/10 02:25:58;;;;;;;21.98;2.80;;;;;;;;;;5122331;27;20039;-86
2022/04/10 02:28:25;;;;;;;16.77;2.60;;;;;;;;;;5123101;27;20104;-87
2022/04/10 02:30:51;;;;;;;14.35;2.78;;;;;;;;;;5121561;27;20083;-91
2022/04/10 02:33:17;;;;;;;10.45;1.65;;;;;;;;;;5125532;27;20050;-88
2022/04/10 02:35:46;;;;;;;10.13;2.40;;;;;;;;;;5125958;27;20104;-88
2022/04/10 02:38:12;;;;;;;23.38;2.72;;;;;;;;;;5089463;27;20137;-87
2022/04/10 02:40:38;;;;;;;15.45;2.33;;;;;;;;;;5114958;27;20760;-87
2022/04/10 02:43:04;;;;;;;17.35;3.05;;;;;;;;;;5114943;27;20378;-87
2022/04/10 02:48:06;;;;;;;20.42;3.15;;;;;;;;;;5134453;22;20063;-88
2022/04/10 02:50:32;;;;;;;24.17;3.70;;;;;;;;;;5112332;27;20032;-92
2022/04/10 02:52:58;;;;;;;23.02;4.18;;;;;;;;;;5115722;27;20035;-90
2022/04/10 02:55:24;;;;;;;18.10;3.13;;;;;;;;;;5123659;27;20050;-86
2022/04/10 02:57:50;;;;;;;18.17;4.13;;;;;;;;;;5133881;27;20084;-90
2022/04/10 03:00:16;;;;;;;22.42;3.65;;;;;;;;;;5106641;27;20221;-86
2022/04/10 03:02:42;;;;;;;13.23;2.88;;;;;;;;;;5133411;27;20045;-89
2022/04/10 03:05:10;;;;;;;13.85;2.80;;;;;;;;;;5114954;27;20047;-95
2022/04/10 03:07:36;;;;;;;16.13;2.80;;;;;;;;;;5127627;27;20035;-92
2022/04/10 03:13:06;;;;;;;13.50;2.35;;;;;;;;;;5108753;27;20066;-90
2022/04/10 03:15:32;;;;;;;8.95;2.47;;;;;;;;;;5136874;27;20812;-87
2022/04/10 03:17:58;;;;;;;7.15;1.88;;;;;;;;;;5135625;27;20035;-89
2022/04/10 03:20:24;;;;;;;12.57;2.83;;;;;;;;;;5101705;27;20078;-89
2022/04/10 03:22:50;;;;;;;11.90;1.60;;;;;;;;;;5109970;27;20043;-86
2022/04/10 03:25:16;;;;;;;10.60;1.98;;;;;;;;;;5146715;27;20648;-88
2022/04/10 03:27:42;;;;;;;7.93;1.75;;;;;;;;;;5132250;27;21719;-87
2022/04/10 03:30:09;;;;;;;5.07;1.50;;;;;;;;;;5112598;27;20791;-90
2022/04/10 03:32:35;;;;;;;9.48;2.25;;;;;;;;;;5109406;27;20134;-88
2022/04/10 03:35:01;;;;;;;9.82;1.80;;;;;;;;;;5109962;27;20046;-92
2022/04/10 03:37:27;;;;;;;14.25;2.92;;;;;;;;;;5075274;27;20047;-91
2022/04/10 03:39:54;;;;;;;5.88;1.25;;;;;;;;;;5112157;27;20035;-88
2022/04/10 03:42:20;;;;;;;3.88;1.00;;;;;;;;;;5117461;27;20054;-89
2022/04/10 03:44:46;;;;;;;6.38;2.03;;;;;;;;;;5110963;27;20035;-88
2022/04/10 03:47:12;;;;;;;6.93;1.58;;;;;;;;;;5101818;27;20040;-89
2022/04/10 03:49:38;;;;;;;14.23;2.30;;;;;;;;;;5088669;28;20052;-87
2022/04/10 03:52:05;;;;;;;8.27;1.90;;;;;;;;;;5088209;28;20067;-91
2022/04/10 03:54:34;;;;;;;7.50;1.80;;;;;;;;;;5069845;28;20145;-90
2022/04/10 03:57:00;;;;;;;9.23;1.90;;;;;;;;;;5055563;28;20051;-87
2022/04/10 03:59:26;;;;;;;8.20;1.75;;;;;;;;;;5085776;28;20036;-87
2022/04/10 04:01:52;;;;;;;9.20;1.80;;;;;;;;;;5069377;28;20059;-87
2022/04/10 04:04:20;;;;;;;11.63;1.80;;;;;;;;;;5072309;28;20047;-91
2022/04/10 04:06:46;;;;;;;10.77;1.52;;;;;;;;;;5057307;28;20070;-88
2022/04/10 04:09:20;;;;;;;9.25;1.50;;;;;;;;;;5087006;28;20040;-87
2022/04/10 04:11:46;;;;;;;11.48;2.10;;;;;;;;;;5082815;28;20044;-89
2022/04/10 04:14:13;;;;;;;15.05;2.42;;;;;;;;;;5068819;28;20086;-90
2022/04/10 04:16:39;;;;;;;17.35;3.05;;;;;;;;;;5062525;28;20043;-89
2022/04/10 04:19:21;;;;;;;5.22;1.33;;;;;;;;;;5065578;28;20390;-89
2022/04/10 04:21:47;;;;;;;12.02;1.88;;;;;;;;;;5045285;28;20125;-90
2022/04/10 04:24:13;;;;;;;8.48;1.92;;;;;;;;;;5078654;28;20078;-90
2022/04/10 04:26:39;;;;;;;9.00;1.67;;;;;;;;;;5047982;28;20128;-89
2022/04/10 04:29:05;;;;;;;5.15;1.40;;;;;;;;;;5063494;28;20032;-89
2022/04/10 04:31:31;;;;;;;11.30;1.85;;;;;;;;;;5046952;28;20039;-91
2022/04/10 04:33:57;;;;;;;7.60;1.70;;;;;;;;;;5063056;28;20040;-89
2022/04/10 04:36:23;;;;;;;7.40;1.35;;;;;;;;;;5064352;28;20943;-89
2022/04/10 04:38:53;;;;;;;5.30;1.90;;;;;;;;;;5065389;28;20044;-90
2022/04/10 04:41:19;;;;;;;4.50;1.65;;;;;;;;;;5066003;28;20040;-88
2022/04/10 04:43:45;;;;;;;13.63;1.85;;;;;;;;;;5064334;28;20032;-89
2022/04/10 04:46:17;;;;;;;7.85;1.60;;;;;;;;;;5079850;28;20133;-88
2022/04/10 04:48:43;;;;;;;9.55;1.38;;;;;;;;;;5060056;28;20882;-88
2022/04/10 04:51:29;;;;;;;8.70;1.98;;;;;;;;;;5046359;28;20488;-89
2022/04/10 04:54:10;;;;;;;5.82;1.30;;;;;;;;;;5085368;28;20078;-87
2022/04/10 04:56:36;;;;;;;9.05;1.30;;;;;;;;;;5089559;28;20090;-90
2022/04/10 04:59:02;;;;;;;12.85;1.50;;;;;;;;;;5052029;28;20040;-88
2022/04/10 05:01:28;;;;;;;6.35;1.65;;;;;;;;;;5092148;28;20039;-93
2022/04/10 05:03:54;;;;;;;7.07;1.75;;;;;;;;;;5068403;28;20044;-88
2022/04/10 05:06:20;;;;;;;9.35;1.67;;;;;;;;;;5071475;28;20044;-87
2022/04/10 05:08:46;;;;;;;8.00;1.83;;;;;;;;;;5069657;28;20089;-91
2022/04/10 05:11:13;;;;;;;9.50;1.90;;;;;;;;;;5080378;28;20075;-87
2022/04/10 05:13:39;;;;;;;7.93;1.90;;;;;;;;;;5080488;28;20193;-90
2022/04/10 05:16:06;;;;;;;10.48;2.28;;;;;;;;;;5068321;28;20122;-89
2022/04/10 05:18:32;;;;;;;14.13;1.90;;;;;;;;;;5082269;28;20130;-93
2022/04/10 05:20:58;;;;;;;8.32;1.88;;;;;;;;;;5081265;28;20037;-89
2022/04/10 05:23:24;;;;;;;11.77;2.35;;;;;;;;;;5077365;28;20067;-88
2022/04/10 05:25:50;;;;;;;13.95;2.30;;;;;;;;;;5091411;28;20047;-91
2022/04/10 05:28:16;;;;;;;13.93;2.00;;;;;;;;;;5081830;28;20039;-88
2022/04/10 05:30:43;;;;;;;14.27;2.30;;;;;;;;;;5105779;27;20393;-91
2022/04/10 05:33:09;;;;;;;13.55;2.47;;;;;;;;;;5084119;28;20118;-90
2022/04/10 05:35:36;;;;;;;9.77;2.05;;;;;;;;;;5084164;28;20040;-91
2022/04/10 05:38:02;;;;;;;13.52;3.08;;;;;;;;;;5070638;28;20047;-90
2022/04/10 05:40:28;;;;;;;9.98;2.15;;;;;;;;;;5084850;28;20048;-91
2022/04/10 05:42:54;;;;;;;10.95;2.33;;;;;;;;;;5083865;28;20064;-91
2022/04/10 05:45:20;;;;;;;8.55;1.60;;;;;;;;;;5081429;28;20043;-93
2022/04/10 05:47:46;;;;;;;9.98;2.00;;;;;;;;;;5122686;27;20062;-89
2022/04/10 05:50:13;;;;;;;9.23;1.70;;;;;;;;;;5127777;27;20075;-87
2022/04/10 05:52:39;;;;;;;8.73;1.60;;;;;;;;;;5125520;27;20039;-87
2022/04/10 05:55:06;;;;;;;10.48;1.92;;;;;;;;;;5086930;27;20067;-92
2022/04/10 05:57:39;;;;;;;12.90;2.05;;;;;;;;;;5125137;27;20134;-85
2022/04/10 06:00:06;;;;;;;9.70;1.88;;;;;;;;;;5120237;27;20070;-91
2022/04/10 06:02:32;;;;;;;10.98;1.80;;;;;;;;;;5109504;27;20046;-93
2022/04/10 06:04:58;;;;;;;7.95;1.67;;;;;;;;;;5130998;27;20043;-87
2022/04/10 06:07:25;;;;;;;10.73;2.70;;;;;;;;;;5121731;27;20482;-88
2022/04/10 06:09:51;;;;;;;9.32;1.75;;;;;;;;;;5127149;27;20661;-87
2022/04/10 06:12:17;;;;;;;9.80;2.95;;;;;;;;;;5104631;27;20385;-86
2022/04/10 06:14:43;;;;;;;7.50;2.42;;;;;;;;;;5101348;27;20099;-88
2022/04/10 06:17:09;;;;;;;8.05;1.90;;;;;;;;;;5085509;27;20065;-87
2022/04/10 06:19:35;;;;;;;9.23;1.83;;;;;;;;;;5121452;27;20027;-87
2022/04/10 06:22:01;;;;;;;8.52;2.08;;;;;;;;;;5103371;27;20047;-86
2022/04/10 06:24:28;;;;;;;10.60;2.78;;;;;;;;;;5105909;27;20073;-88
2022/04/10 06:26:54;;;;;;;9.73;1.77;;;;;;;;;;5108926;27;20141;-87
2022/04/10 06:29:21;;;;;;;7.68;2.05;;;;;;;;;;5123016;27;20050;-87
2022/04/10 06:31:47;;;;;;;9.50;1.85;;;;;;;;;;5126882;27;20067;-88
2022/04/10 06:34:13;;;;;;;11.93;1.83;;;;;;;;;;5104792;28;20913;-86
2022/04/10 06:36:40;;;;;;;6.25;1.48;;;;;;;;;;5124763;28;20101;-86
2022/04/10 06:39:06;;;;;;;7.72;1.50;;;;;;;;;;5103184;28;20039;-87
2022/04/10 06:41:32;;;;;;;7.00;1.73;;;;;;;;;;5118956;27;20051;-87
2022/04/10 06:44:02;;;;;;;6.65;1.40;;;;;;;;;;5101141;27;20035;-87
2022/04/10 06:46:28;;;;;;;13.05;1.77;;;;;;;;;;5090151;28;20036;-89
2022/04/10 06:48:55;;;;;;;6.10;1.50;;;;;;;;;;5082429;28;20113;-85
2022/04/10 06:51:24;;;;;;;6.45;1.52;;;;;;;;;;5076155;28;20511;-87
2022/04/10 06:53:50;;;;;;;10.75;2.05;;;;;;;;;;5084211;28;20454;-87
2022/04/10 06:56:16;;;;;;;8.40;1.88;;;;;;;;;;5085248;28;20074;-87
2022/04/10 06:58:42;;;;;;;11.07;2.22;;;;;;;;;;5079498;28;20533;-86
2022/04/10 07:01:08;;;;;;;12.57;1.90;;;;;;;;;;5079102;28;20071;-86
2022/04/10 07:03:35;;;;;;;15.10;2.42;;;;;;;;;;5080345;28;20411;-86
2022/04/10 07:06:09;;;;;;;15.27;2.45;;;;;;;;;;5068090;28;20177;-91
2022/04/10 07:08:37;;;;;;;12.13;2.08;;;;;;;;;;5064283;28;20488;-88
2022/04/10 07:11:03;;;;;;;17.30;2.28;;;;;;;;;;5077834;28;20052;-88
2022/04/10 07:13:32;;;;;;;16.65;3.55;;;;;;;;;;5081847;28;20562;-87
2022/04/10 07:15:58;;;;;;;22.40;2.78;;;;;;;;;;5077234;28;20048;-87
2022/04/10 07:18:25;;;;;;;14.65;2.88;;;;;;;;;;5086531;28;20079;-91
2022/04/10 07:20:51;;;;;;;12.48;1.92;;;;;;;;;;5061272;28;20127;-87
2022/04/10 07:26:03;;;;;;;5.93;1.45;;;;;;;;;;5085018;28;20043;-86
2022/04/10 07:28:29;;;;;;;12.40;2.20;;;;;;;;;;5094611;28;20040;-90
2022/04/10 07:30:59;;;;;;;11.60;1.95;;;;;;;;;;5085950;28;20048;-87
2022/04/10 07:33:25;;;;;;;14.73;2.20;;;;;;;;;;5087816;28;21114;-87
2022/04/10 07:36:00;;;;;;;8.77;1.90;;;;;;;;;;5086739;28;20105;-87
2022/04/10 07:38:27;;;;;;;4.70;1.10;;;;;;;;;;5089231;28;20043;-90
2022/04/10 07:40:53;;;;;;;10.20;1.70;;;;;;;;;;5086183;28;20055;-88
2022/04/10 07:43:23;;;;;;;11.50;1.70;;;;;;;;;;5091275;28;20028;-88
2022/04/10 07:48:34;;;;;;;8.40;1.50;;;;;;;;;;5123356;27;20660;-88
2022/04/10 07:51:00;;;;;;;6.97;1.70;;;;;;;;;;5123071;27;20498;-87
2022/04/10 07:53:29;;;;;;;10.65;1.83;;;;;;;;;;5131667;27;20515;-89
2022/04/10 07:55:55;;;;;;;14.15;2.20;;;;;;;;;;5114582;27;20469;-87
2022/04/10 07:58:21;;;;;;;11.23;1.77;;;;;;;;;;5101913;27;20093;-87
2022/04/10 08:00:53;;;;;;;14.43;1.95;;;;;;;;;;5105248;27;20448;-87
2022/04/10 08:03:46;;;;;;;7.20;1.55;;;;;;;;;;5095496;27;20097;-87
2022/04/10 08:06:12;;;;;;;8.50;1.38;;;;;;;;;;5112240;27;20035;-86
2022/04/10 08:08:38;;;;;;;8.98;2.08;;;;;;;;;;5113017;27;20035;-88
2022/04/10 08:11:07;;;;;;;4.97;1.48;;;;;;;;;;5113555;27;20394;-91
2022/04/10 08:13:36;;;;;;;7.80;1.48;;;;;;;;;;5111950;27;20066;-86
2022/04/10 08:16:03;;;;;;;13.77;2.15;;;;;;;;;;5109236;27;20498;-87
2022/04/10 08:18:29;;;;;;;10.70;2.10;;;;;;;;;;5119790;27;20131;-86
2022/04/10 08:20:55;;;;;;;6.15;2.08;;;;;;;;;;5126820;27;20035;-87
2022/04/10 08:23:22;;;;;;;12.27;2.30;;;;;;;;;;5097784;27;20053;-87
2022/04/10 08:25:49;;;;;;;18.25;2.70;;;;;;;;;;5128509;27;20069;-88
2022/04/10 08:28:24;;;;;;;9.55;2.05;;;;;;;;;;5109410;27;20478;-88
2022/04/10 08:31:19;;;;;;;10.32;1.90;;;;;;;;;;5073050;28;20854;-87
2022/04/10 08:33:51;;;;;;;11.40;2.00;;;;;;;;;;5054945;28;20076;-87
2022/04/10 08:36:17;;;;;;;13.15;1.85;;;;;;;;;;5049293;28;20390;-88
2022/04/10 08:39:05;;;;;;;11.00;2.10;;;;;;;;;;5085101;28;20119;-87
2022/04/10 08:41:31;;;;;;;9.48;1.98;;;;;;;;;;5053681;28;20493;-90
2022/04/10 08:43:59;;;;;;;10.98;1.80;;;;;;;;;;5082756;28;20514;-89
2022/04/10 08:46:33;;;;;;;13.38;2.00;;;;;;;;;;5058232;28;21770;-88
2022/04/10 08:49:06;;;;;;;19.10;2.22;;;;;;;;;;5043517;28;20074;-88
2022/04/10 08:51:35;;;;;;;15.75;2.10;;;;;;;;;;5058281;28;20048;-87
2022/04/10 08:54:07;;;;;;;16.48;2.47;;;;;;;;;;5063494;28;20036;-89
2022/04/10 08:56:33;;;;;;;7.18;1.50;;;;;;;;;;5059660;28;20508;-87
2022/04/10 08:59:00;;;;;;;12.57;2.20;;;;;;;;;;5080070;28;20155;-87
2022/04/10 09:01:48;;;;;;;16.23;2.63;;;;;;;;;;5057196;28;20461;-91
2022/04/10 09:04:43;;;;;;;12.02;1.90;;;;;;;;;;5091243;28;20067;-91
2022/04/10 09:07:32;;;;;;;9.93;1.90;;;;;;;;;;5092839;28;20044;-89
2022/04/10 09:10:14;;;;;;;5.03;1.60;;;;;;;;;;5032879;28;20083;-90
2022/04/10 09:12:46;;;;;;;11.10;2.60;;;;;;;;;;5072567;28;20048;-88
2022/04/10 09:15:15;;;;;;;8.55;1.48;;;;;;;;;;5070773;28;20117;-94
2022/04/10 09:17:59;;;;;;;7.80;1.67;;;;;;;;;;5094893;28;20440;-89
2022/04/10 09:20:58;;;;;;;16.17;1.90;;;;;;;;;;5104834;28;20036;-93
2022/04/10 09:23:27;;;;;;;13.60;1.90;;;;;;;;;;5089259;28;20040;-88
2022/04/10 09:25:58;;;;;;;6.50;1.45;;;;;;;;;;5069319;28;20036;-89
2022/04/10 09:28:44;;;;;;;7.32;1.98;;;;;;;;;;5077453;28;20074;-95
2022/04/10 09:37:03;;;;;;;13.23;2.20;;;;;;;;;;5054766;22;20828;-92
2022/04/10 09:39:41;;;;;;;6.43;1.60;;;;;;;;;;5039968;28;20076;-91
2022/04/10 09:42:17;;;;;;;13.25;2.25;;;;;;;;;;5029900;28;20045;-92
2022/04/10 09:44:50;;;;;;;9.82;2.10;;;;;;;;;;5054009;22;20039;-93
2022/04/10 09:47:25;;;;;;;6.82;1.55;;;;;;;;;;5067781;28;20043;-93
2022/04/10 09:53:31;;;;;;;12.70;2.15;;;;;;;;;;5067711;28;20090;-93
2022/04/10 09:56:08;;;;;;;11.73;1.60;;;;;;;;;;5026578;28;20098;-91
2022/04/10 09:58:35;;;;;;;12.15;1.50;;;;;;;;;;5061830;28;20048;-91
2022/04/10 10:01:04;;;;;;;12.13;1.70;;;;;;;;;;5045789;28;20149;-90
2022/04/10 10:03:36;;;;;;;8.77;1.73;;;;;;;;;;5058529;28;20055;-87
2022/04/10 10:06:04;;;;;;;6.85;1.25;;;;;;;;;;5018421;28;20036;-91
2022/04/10 10:08:31;;;;;;;7.93;1.85;;;;;;;;;;5066447;28;20108;-91
2022/04/10 10:11:13;;;;;;;6.82;1.45;;;;;;;;;;5022853;28;20535;-89
2022/04/10 10:16:50;;;;;;;5.55;0.95;;;;;;;;;;5051168;28;20055;-93
2022/04/10 10:22:33;;;;;;;8.93;1.17;;;;;;;;;;5055972;28;20123;-93
2022/04/10 10:25:07;;;;;;;8.18;1.52;;;;;;;;;;5030365;28;20068;-92
2022/04/10 10:34:22;;;;;;;6.00;1.40;;;;;;;;;;5062206;28;20044;-93
2022/04/10 10:36:48;;;;;;;6.47;1.48;;;;;;;;;;5026716;28;20127;-93
2022/04/10 10:39:14;;;;;;;9.57;1.88;;;;;;;;;;5013890;28;20040;-94
2022/04/10 10:41:59;;;;;;;8.43;1.42;;;;;;;;;;5021157;28;20053;-94
2022/04/10 10:52:03;;;;;;;11.82;1.73;;;;;;;;;;5058002;22;20052;-87
2022/04/10 10:54:34;;;;;;;17.45;2.30;;;;;;;;;;4990416;28;20399;-88
2022/04/10 10:57:20;;;;;;;13.07;2.08;;;;;;;;;;4994265;28;20516;-88
2022/04/10 11:00:04;;;;;;;11.48;1.67;;;;;;;;;;5018849;28;20034;-88
2022/04/10 11:02:35;;;;;;;;;;;10.20;99.90;;;;;;5028190;28;20050;-87
2022/04/10 11:05:52;;;;;;;6.57;1.50;;;10.30;99.90;;;;;;5083953;22;19947;-86
2022/04/10 11:08:20;;;;;;;14.07;2.03;;;;;;;;;;5096167;23;20054;-87
2022/04/10 11:11:23;;;;;;;13.88;1.90;;;;;;;;;;5076399;28;20093;-86
2022/04/10 11:14:04;;;;;;;5.65;1.42;;;;;;;;;;5087805;28;20077;-88
2022/04/10 11:16:52;;;;;;;4.75;1.33;;;;;;;;;;5046838;28;20082;-89
2022/04/10 11:19:30;;;;;;;7.00;1.13;;;;;;;;;;5064502;28;20113;-92
2022/04/10 11:22:16;;;;;;;13.32;1.98;;;;;;;;;;5064127;28;20052;-88
2022/04/10 11:28:12;;;;;;;9.48;1.60;;;;;;;;;;5091826;28;20102;-87
2022/04/10 11:30:48;;;;;;;8.98;2.13;;;;;;;;;;5056011;28;20080;-88
2022/04/10 11:33:14;;;;;;;7.38;1.42;;;;;;;;;;5068632;28;20122;-88
2022/04/10 11:35:41;;;;;;;8.05;1.50;;;;;;;;;;5053006;28;20115;-88
2022/04/10 11:38:17;;;;;;;5.32;1.55;;;;;;;;;;5084089;28;20044;-89
2022/04/10 11:40:51;;;;;;;9.93;1.80;;;;;;;;;;5064797;28;20515;-88
2022/04/10 11:46:31;;;;;;;5.20;1.15;;;;;;;;;;5100436;22;20056;-88
2022/04/10 11:48:59;;;;;;;9.80;1.75;;;;;;;;;;5019400;28;20080;-89
2022/04/10 11:51:26;;;;;;;11.52;2.47;;;;;;;;;;5041384;28;20052;-86
2022/04/10 11:53:55;;;;;;;9.35;1.27;;;;;;;;;;5059075;28;20163;-89
2022/04/10 11:56:31;;;;;;;4.38;1.42;;;;;;;;;;5060031;28;20060;-87
2022/04/10 11:59:08;;;;;;;10.30;1.42;;;;;;;;;;5036099;22;20041;-88
2022/04/10 12:01:36;;;;;;;8.27;1.83;;;;;;;;;;5040287;28;20485;-88
2022/04/10 12:04:02;;;;;;;10.00;2.03;;;;;;;;;;5055529;28;20079;-87
2022/04/10 12:06:35;;;;;;;9.18;1.67;;;;;;;;;;5042566;28;20079;-88
2022/04/10 12:09:10;;;;;;;7.63;1.50;;;;;;;;;;5054532;28;20048;-86
2022/04/10 12:11:44;;;;;;;6.20;1.70;;;;;;;;;;5059614;28;20049;-88
2022/04/10 12:14:35;;;;;;;9.13;1.73;;;;;;;;;;5041794;28;20048;-86
2022/04/10 12:17:02;;;;;;;7.18;1.40;;;;;;;;;;5042756;28;20057;-86
2022/04/10 12:19:34;;;;;;;7.30;1.90;;;;;;;;;;5060553;28;20060;-88
2022/04/10 12:22:02;;;;;;;8.57;1.65;;;;;;;;;;5061650;28;20092;-87
2022/04/10 12:24:34;;;;;;;11.68;1.80;;;;;;;;;;5043836;28;20060;-88
2022/04/10 12:30:31;;;;;;;6.15;2.10;;;;;;;;;;5550944;22;20060;-87
2022/04/10 12:32:58;;;;;;;7.20;1.40;;;;;;;;;;5005585;28;20065;-89
2022/04/10 12:35:24;;;;;;;8.05;1.60;;;;;;;;;;4996085;28;21933;-87
2022/04/10 12:41:14;;;;;;;11.00;1.83;;;;;;;;;;5003556;28;20125;-86
2022/04/10 12:43:40;;;;;;;7.47;1.50;;;;;;;;;;4983194;28;20049;-87
2022/04/10 12:46:10;;;;;;;11.20;1.75;;;;;;;;;;5015052;28;20050;-88
2022/04/10 12:48:37;;;;;;;7.00;1.80;;;;;;;;;;4986879;28;20049;-89
2022/04/10 12:51:14;;;;;;;6.07;1.20;;;;;;;;;;4993668;28;20057;-87
2022/04/10 12:53:47;;;;;;;7.82;2.03;;;;;;;;;;4989784;28;21360;-87
2022/04/10 12:56:23;;;;;;;8.85;1.30;;;;;;;;;;4992204;28;20038;-85
2022/04/10 12:58:50;;;;;;;9.18;1.58;;;;;;;;;;4975393;28;20052;-87
2022/04/10 13:01:32;;;;;;;8.50;1.73;;;;;;;;;;4988679;28;21058;-88
2022/04/10 13:03:59;;;;;;;7.35;1.60;;;;;;;;;;4990069;28;20122;-88
2022/04/10 13:06:45;;;;;;;12.43;1.95;;;;;;;;;;4969149;28;20042;-86
2022/04/10 13:09:33;;;;;;;9.65;1.95;;;;;;;;;;4990396;28;20082;-90
2022/04/10 13:11:59;;;;;;;6.88;1.85;;;;;;;;;;4997342;28;20644;-87
2022/04/10 13:14:26;;;;;;;8.55;1.58;;;;;;;;;;4988983;28;20587;-88
2022/04/10 13:17:03;;;;;;;6.28;1.60;;;;;;;;;;4982127;28;20069;-89
2022/04/10 13:19:30;;;;;;;9.95;1.75;;;;;;;;;;4980643;28;20042;-88
2022/04/10 13:22:15;;;;;;;8.73;1.50;;;;;;;;;;5001993;28;20034;-86
2022/04/10 13:24:41;;;;;;;11.95;2.45;;;;;;;;;;4976854;28;20767;-87
2022/04/10 13:27:08;;;;;;;7.78;1.77;;;;;;;;;;4996528;28;20069;-88
2022/04/10 13:29:34;;;;;;;6.28;1.40;;;;;;;;;;4999461;28;20046;-88
2022/04/10 13:32:00;;;;;;;9.82;1.83;;;;;;;;;;4976543;28;20134;-89
2022/04/10 13:34:27;;;;;;;13.77;1.55;;;;;;;;;;4994725;28;20116;-88
2022/04/10 13:36:53;;;;;;;8.75;1.55;;;;;;;;;;4990168;28;20510;-86
2022/04/10 13:39:19;;;;;;;5.65;1.13;;;;;;;;;;4965835;28;20042;-90
2022/04/10 13:41:48;;;;;;;7.13;1.42;;;;;;;;;;4985986;28;20050;-88
2022/04/10 13:44:14;;;;;;;9.45;1.90;;;;;;;;;;5001106;28;20052;-87
2022/04/10 13:46:40;;;;;;;14.57;1.55;;;;;;;;;;4995850;28;20379;-88
2022/04/10 13:49:06;;;;;;;8.95;1.65;;;;;;;;;;4983205;28;20040;-87
2022/04/10 13:51:32;;;;;;;9.23;1.55;;;;;;;;;;4980380;28;20077;-90
2022/04/10 13:54:01;;;;;;;7.13;1.42;;;;;;;;;;4982956;28;20568;-90
2022/04/10 13:56:27;;;;;;;10.60;1.77;;;;;;;;;;4981338;28;20387;-88
2022/04/10 13:58:54;;;;;;;5.45;1.50;;;;;;;;;;5026137;22;20068;-92
2022/04/10 14:01:26;;;;;;;9.25;1.80;;;;;;;;;;5011053;28;20056;-89
2022/04/10 14:03:53;;;;;;;6.30;1.40;;;;;;;;;;5006917;28;20662;-87
2022/04/10 14:06:19;;;;;;;9.00;1.58;;;;;;;;;;5037844;28;20139;-86
2022/04/10 14:08:51;;;;;;;6.75;1.75;;;;;;;;;;5042804;28;20131;-89
2022/04/10 14:11:17;;;;;;;7.65;1.80;;;;;;;;;;5042269;28;20041;-85
2022/04/10 14:13:44;;;;;;;7.40;1.60;;;;;;;;;;5026329;28;20112;-87
2022/04/10 14:16:14;;;;;;;7.60;1.50;;;;;;;;;;5008057;28;20055;-87
2022/04/10 14:18:40;;;;;;;6.43;2.05;;;;;;;;;;5041529;28;20477;-87
2022/04/10 14:21:06;;;;;;;6.13;1.77;;;;;;;;;;5043019;28;20452;-87
2022/04/10 14:23:33;;;;;;;8.57;1.77;;;;;;;;;;5024165;28;20041;-84
2022/04/10 14:25:59;;;;;;;9.00;2.00;;;;;;;;;;5044009;28;20579;-83
2022/04/10 14:28:25;;;;;;;5.43;1.55;;;;;;;;;;5003529;28;20036;-84
2022/04/10 14:30:51;;;;;;;7.68;2.15;;;;;;;;;;5022142;28;20056;-86
2022/04/10 14:33:29;;;;;;;11.27;2.83;;;;;;;;;;5024906;28;20045;-85
2022/04/10 14:35:55;;;;;;;5.55;1.63;;;;;;;;;;5023953;28;20061;-83
2022/04/10 14:38:21;;;;;;;7.13;1.33;;;;;;;;;;5038957;28;20049;-84
2022/04/10 14:40:48;;;;;;;6.28;1.70;;;;;;;;;;5039480;28;20053;-89
2022/04/10 14:43:14;;;;;;;10.32;1.85;;;;;;;;;;5037311;28;20228;-88
2022/04/10 14:45:40;;;;;;;9.50;2.05;;;;;;;;;;5005914;28;20041;-90
2022/04/10 14:48:06;;;;;;;8.88;1.70;;;;;;;;;;5042576;28;20056;-90
2022/04/10 14:50:35;;;;;;;7.45;1.50;;;;;;;;;;5041559;28;20251;-86
2022/04/10 14:53:02;;;;;;;7.30;1.35;;;;;;;;;;5022597;28;20075;-88
2022/04/10 14:55:28;;;;;;;6.70;1.50;;;;;;;;;;5008672;28;20131;-89
2022/04/10 14:57:54;;;;;;;4.97;1.83;;;;;;;;;;5024305;28;20041;-88
2022/04/10 15:00:20;;;;;;;5.72;1.60;;;;;;;;;;5023532;28;20061;-89
2022/04/10 15:02:50;;;;;;;6.22;1.38;;;;;;;;;;5038720;28;20131;-86
2022/04/10 15:05:16;;;;;;;11.38;1.95;;;;;;;;;;5044394;28;20806;-88
2022/04/10 15:07:50;;;;;;;4.10;0.93;;;;;;;;;;5042247;28;20140;-88
2022/04/10 15:10:17;;;;;;;5.63;1.15;;;;;;;;;;5030508;28;20045;-84
2022/04/10 15:12:43;;;;;;;5.32;1.23;;;;;;;;;;5032778;28;20045;-85
2022/04/10 15:15:09;;;;;;;6.72;1.30;;;;;;;;;;5055836;28;20896;-89
2022/04/10 15:17:35;;;;;;;4.72;1.15;;;;;;;;;;5028283;28;20040;-86
2022/04/10 15:20:02;;;;;;;4.03;1.02;;;;;;;;;;5031268;28;20396;-88
2022/04/10 15:22:29;;;;;;;6.43;2.05;;;;;;;;;;5047401;28;20256;-87
2022/04/10 15:24:55;;;;;;;6.47;1.40;;;;;;;;;;5025046;28;20047;-85
2022/04/10 15:27:21;;;;;;;17.00;1.70;;;;;;;;;;5040082;28;20041;-84
2022/04/10 15:29:49;;;;;;;6.07;1.30;;;;;;;;;;5023853;28;20171;-85
2022/04/10 15:32:15;;;;;;;5.63;1.25;;;;;;;;;;5021948;28;20084;-86
2022/04/10 15:34:41;;;;;;;5.45;1.17;;;;;;;;;;5024523;28;20104;-85
2022/04/10 15:37:08;;;;;;;6.78;1.63;;;;;;;;;;5026392;28;20103;-85
2022/04/10 15:39:34;;;;;;;7.10;1.40;;;;;;;;;;5032156;28;20041;-86
2022/04/10 15:42:00;;;;;;;7.72;1.40;;;;;;;;;;5012941;28;20056;-85